Sims, IL (62886)

3:54 PM CDT on August 31, 2015 (GMT -0500)
Fairfield Municipal | | Change Station
CLOSE
Current Station
Airport
Location: Fairfield,
Elevation: 436 ft
Nearby Weather Stations

Elev 436 ft 38.38 °N, 88.41 °W | Updated 19 minutes ago

Mostly Cloudy
Mostly Cloudy
87 °F
Feels Like 91 °F
N
9
Wind Variable Wind from SSW

Today
High -- | Low -- °F
--% Chance of Precip.
Yesterday
High -- | Low -- °F
Precip. -- in
6:22 AM 7:25 PM
Waning Gibbous, 93% visible
Pressure 30.05 in
Visibility 10.0 miles
Clouds Scattered Clouds 4100 ft
Scattered Clouds 4800 ft
Scattered Clouds 5500 ft
Heat Index 91 °F
Dew Point 68 °F
Humidity 54%
Rainfall 0.00 in
Snow Depth Not available.
UV 5 out of 12
Pollen 9.70 out of 12
Air Quality Not available.
Flu Activity Not available.
METAR KFWC 312035Z AUTO 20008KT 10SM SCT041 SCT048 SCT055 31/20 A3005 RMK AO1 T03050202
Pressure 30.05 in
Visibility 10.0 miles
Clouds Scattered Clouds 4100 ft
Scattered Clouds 4800 ft
Scattered Clouds 5500 ft
Heat Index 91 °F
Dew Point 68 °F
Humidity 54%
Rainfall 0.00 in
Snow Depth Not available.
UV 5 out of 12
Pollen 9.70 out of 12
Air Quality Not available.
Flu Activity Not available.
METAR KFWC 312035Z AUTO 20008KT 10SM SCT041 SCT048 SCT055 31/20 A3005 RMK AO1 T03050202

10-Day Weather Forecast

×

Almanac

Astronomy

Aug. 31, 2015 Rise Set
Actual Time
Civil Twilight
Nautical Twilight
Astronomical Twilight
Moon
Length of Visible Light
Length of Day
Tomorrow will be .
, % of the Moon is Illuminated

Today's Extremes

State Highs State Lows

Community

WunderPhotos

Upload Photos

1,851,356 photos uploaded!

WunderBlogs® & News

Nearby

Air Quality

  Air Quality AQ Index Pollutant
Not available.

Snow Depth

Station Depth Elevation

Earthquake Activity

City Distance Mag. Time & Date
Minimum magnitude displayed is 2.5.

Coastal Water Temperatures

Place Temperature

Stations

Nearby Weather Stations

Station Location Temp. Windchill Dew Point Humidity Wind Precip. Elev Updated Type